Flight Track Log - Related Links

Times and Time Zones

All times are in EDT time to prevent confusion due to time zone crossing. See the ASA125 flight status page for this flight to view local times or setup timezone preferences in your user account.

Time Position Orientation Groundspeed Altitude Reporting Facility
EDT Latitude Longitude Course Direction KTS MPH feet Rate Location/Type
Thu 02:12:32 AM 47.4636 -122.3078 360° North 151 174 1,500  Level Seattle Center
Thu 02:13:07 AM 47.4878 -122.3075 360° North 158 182 2,000 1,625 Climbing Seattle Center
Thu 02:14:08 AM 47.5503 -122.3111 358° North 214 246 4,100 2,231 Climbing Seattle Center
Thu 02:15:08 AM 47.6022 -122.3797 318° Northwest 257 296 6,500 2,579 Climbing Seattle Center
Thu 02:16:09 AM 47.6481 -122.4578 311° West 256 295 9,300 2,529 Climbing Seattle Center
Thu 02:17:09 AM 47.7236 -122.4586 360° North 274 315 11,600 2,450 Climbing Seattle Center
Thu 02:18:09 AM 47.7911 -122.5089 333° Northwest 304 350 14,200 2,281 Climbing Seattle Center
Thu 02:19:10 AM 47.8292 -122.6314 295° West 332 382 16,200 2,231 Climbing Seattle Center
Thu 02:20:10 AM 47.8728 -122.7642 296° West 357 411 18,700 2,529 Climbing Seattle Center
Thu 02:21:11 AM 47.9175 -122.9003 296° West 370 426 21,300 2,430 Climbing Seattle Center
Thu 02:22:11 AM 47.9806 -123.0194 308° West 372 428 23,600 2,826 Climbing Seattle Center
Thu 02:23:12 AM 48.0631 -123.1094 324° Northwest 370 426 27,000 2,777 Climbing Seattle Center
Thu 02:24:12 AM 48.1378 -123.1928 323° Northwest 347 399 29,200 1,947 Climbing Seattle Center
Thu 02:25:06 AM 48.2000 -123.2667 322° Northwest 340 391 30,700 1,579 Climbing Vancouver Center
Thu 02:26:06 AM 48.2667 -123.3500 320° Northwest 350 403 32,200 1,650 Climbing Vancouver Center
Thu 02:27:06 AM 48.3500 -123.4500 321° Northwest 350 403 34,000 1,850 Climbing Vancouver Center
Thu 02:28:06 AM 48.4333 -123.5167 332° Northwest 340 391 35,900 1,350 Climbing Vancouver Center
Thu 02:29:06 AM 48.5000 -123.6167 315° West 340 391 36,700 750 Climbing Vancouver Center
Thu 02:30:06 AM 48.5833 -123.7000 327° Northwest 340 391 37,400 650 Climbing Vancouver Center
Thu 02:31:06 AM 48.6667 -123.8000 322° Northwest 350 403 38,000 300 Climbing Vancouver Center
Thu 02:32:06 AM 48.7333 -123.8833 321° Northwest 360 414 38,000  Level Vancouver Center
Thu 02:33:06 AM 48.8167 -123.9833 322° Northwest 360 414 38,000  Level Vancouver Center
Thu 02:34:06 AM 48.9000 -124.0500 332° Northwest 360 414 38,000  Level Vancouver Center
Thu 02:35:06 AM 48.9833 -124.1500 322° Northwest 360 414 38,000  Level Vancouver Center
Thu 02:36:06 AM 49.0500 -124.2333 321° Northwest 350 403 38,000  Level Vancouver Center
Thu 02:37:06 AM 49.1333 -124.3333 322° Northwest 350 403 38,000  Level Vancouver Center
Thu 02:38:06 AM 49.2167 -124.4167 327° Northwest 350 403 38,000  Level Vancouver Center
Thu 02:39:06 AM 49.2833 -124.5167 316° Northwest 350 403 38,000  Level Vancouver Center
Thu 02:40:06 AM 49.3667 -124.6000 327° Northwest 350 403 38,000  Level Vancouver Center
Thu 02:41:06 AM 49.4500 -124.7000 322° Northwest 340 391 38,000  Level Vancouver Center
Thu 02:42:06 AM 49.5167 -124.7833 321° Northwest 340 391 38,000  Level Vancouver Center
Thu 02:43:06 AM 49.6000 -124.8500 333° Northwest 340 391 38,000  Level Vancouver Center
Thu 02:44:06 AM 49.6833 -124.9667 318° Northwest 340 391 38,000  Level Vancouver Center
Thu 02:45:06 AM 49.7500 -125.0333 327° Northwest 340 391 38,000  Level Vancouver Center
Thu 02:46:06 AM 49.8333 -125.1500 318° Northwest 340 391 38,000  Level Vancouver Center
Thu 02:47:06 AM 49.9000 -125.2167 327° Northwest 340 391 38,000  Level Vancouver Center
Thu 02:48:06 AM 49.9833 -125.3333 318° Northwest 340 391 38,000  Level Vancouver Center
Thu 02:49:06 AM 50.0500 -125.4167 321° Northwest 340 391 38,000  Level Vancouver Center
Thu 02:50:06 AM 50.1333 -125.4833 333° Northwest 350 403 38,000  Level Vancouver Center
Thu 02:51:06 AM 50.2167 -125.6000 318° Northwest 340 391 38,000  Level Vancouver Center
Thu 02:52:06 AM 50.2833 -125.6833 321° Northwest 350 403 38,000  Level Vancouver Center
Thu 02:53:06 AM 50.3500 -125.7833 316° Northwest 340 391 38,000  Level Vancouver Center
Thu 02:54:06 AM 50.4167 -125.8667 321° Northwest 350 403 38,000  Level Vancouver Center
Thu 02:55:06 AM 50.5000 -125.9833 318° Northwest 350 403 38,000  Level Vancouver Center
Thu 02:56:06 AM 50.5833 -126.0667 328° Northwest 350 403 38,000  Level Vancouver Center
Thu 02:57:06 AM 50.6500 -126.1500 322° Northwest 340 391 38,000  Level Vancouver Center
Thu 02:58:06 AM 50.7333 -126.2500 323° Northwest 340 391 38,000  Level Vancouver Center
Thu 02:59:06 AM 50.8167 -126.3333 328° Northwest 340 391 38,000  Level Vancouver Center
Thu 03:00:06 AM 50.8833 -126.4500 312° West 340 391 38,000  Level Vancouver Center
Thu 03:01:06 AM 50.9667 -126.5333 328° Northwest 340 391 38,000  Level Vancouver Center
Thu 03:02:06 AM 51.0167 -126.6167 314° West 340 391 38,000  Level Vancouver Center
Thu 03:03:06 AM 51.1000 -126.7167 323° Northwest 350 403 38,000  Level Vancouver Center
Thu 03:04:06 AM 51.1833 -126.8167 323° Northwest 350 403 38,000  Level Vancouver Center
Thu 03:05:06 AM 51.2500 -126.9167 317° Northwest 350 403 38,000  Level Vancouver Center
Thu 03:06:06 AM 51.3333 -127.0000 328° Northwest 350 403 38,000  Level Vancouver Center
Thu 03:07:06 AM 51.4000 -127.1167 313° West 350 403 38,000  Level Vancouver Center
Thu 03:08:06 AM 51.4833 -127.2000 328° Northwest 350 403 38,000  Level Vancouver Center
Thu 03:09:06 AM 51.5500 -127.2833 322° Northwest 350 403 38,000  Level Vancouver Center
Thu 03:10:06 AM 51.6333 -127.4000 319° Northwest 350 403 38,000  Level Vancouver Center
Thu 03:11:06 AM 51.7000 -127.4833 322° Northwest 350 403 38,000  Level Vancouver Center
Thu 03:12:06 AM 51.7833 -127.6000 319° Northwest 340 391 38,000  Level Vancouver Center
Thu 03:13:06 AM 51.8500 -127.6833 322° Northwest 340 391 38,000  Level Vancouver Center
Thu 03:14:06 AM 51.9333 -127.8000 319° Northwest 340 391 38,000  Level Vancouver Center
Thu 03:15:06 AM 52.0000 -127.9000 317° Northwest 340 391 38,000  Level Vancouver Center
Thu 03:16:06 AM 52.0667 -127.9833 322° Northwest 350 403 38,000  Level Vancouver Center
Thu 03:17:06 AM 52.1500 -128.1000 319° Northwest 350 403 38,000  Level Vancouver Center
Thu 03:18:06 AM 52.2333 -128.1833 329° Northwest 350 403 38,000  Level Vancouver Center
Thu 03:19:06 AM 52.3167 -128.2833 324° Northwest 360 414 38,000  Level Vancouver Center
Thu 03:20:06 AM 52.3833 -128.3667 323° Northwest 350 403 38,000  Level Vancouver Center
Thu 03:21:06 AM 52.4667 -128.4667 324° Northwest 350 403 38,000  Level Vancouver Center
Thu 03:22:06 AM 52.5500 -128.5500 329° Northwest 360 414 38,000  Level Vancouver Center
Thu 03:23:06 AM 52.6333 -128.6333 329° Northwest 350 403 38,000  Level Vancouver Center
Thu 03:24:06 AM 52.7333 -128.7333 329° Northwest 370 426 38,000  Level Vancouver Center
Thu 03:25:06 AM 52.8000 -128.8333 318° Northwest 360 414 38,000  Level Vancouver Center
Thu 03:26:06 AM 52.8833 -128.9167 329° Northwest 360 414 38,000  Level Vancouver Center
Thu 03:27:06 AM 52.9833 -129.0167 329° Northwest 370 426 38,000  Level Vancouver Center
Thu 03:28:06 AM 53.0667 -129.1000 329° Northwest 360 414 38,000  Level Vancouver Center
Thu 03:29:06 AM 53.1500 -129.2000 324° Northwest 370 426 38,000  Level Vancouver Center
Thu 03:30:06 AM 53.2167 -129.3000 318° Northwest 370 426 38,000  Level Vancouver Center
Thu 03:31:06 AM 53.3000 -129.3833 329° Northwest 360 414 38,000  Level Vancouver Center
Thu 03:32:06 AM 53.4000 -129.4833 329° Northwest 360 414 38,000  Level Vancouver Center
Thu 03:33:06 AM 53.4833 -129.5833 324° Northwest 360 414 38,000  Level Vancouver Center
Thu 03:34:06 AM 53.5500 -129.6667 323° Northwest 360 414 38,000  Level Vancouver Center
Thu 03:35:06 AM 53.6333 -129.7667 325° Northwest 360 414 38,000  Level Vancouver Center
Thu 03:36:06 AM 53.7333 -129.8667 329° Northwest 370 426 38,000  Level Vancouver Center
Thu 03:37:06 AM 53.8000 -129.9667 318° Northwest 370 426 38,000  Level Vancouver Center
Thu 03:38:06 AM 53.8833 -130.0667 325° Northwest 380 437 38,000  Level Vancouver Center
Thu 03:39:06 AM 53.9833 -130.1667 330° Northwest 370 426 38,000  Level Vancouver Center
Thu 03:40:06 AM 54.0667 -130.2500 330° Northwest 370 426 38,000  Level Vancouver Center
Thu 03:41:06 AM 54.1333 -130.3500 319° Northwest 370 426 38,000  Level Vancouver Center
Thu 03:42:06 AM 54.2167 -130.4500 325° Northwest 370 426 38,000  Level Vancouver Center
Thu 03:43:06 AM 54.3167 -130.5833 322° Northwest 380 437 38,000  Level Vancouver Center
Thu 03:44:06 AM 54.3833 -130.6833 319° Northwest 370 426 38,000  Level Vancouver Center
Thu 03:45:06 AM 54.4833 -130.7833 330° Northwest 370 426 38,000  Level Vancouver Center
Thu 03:46:06 AM 54.5667 -130.8833 325° Northwest 370 426 38,000  Level Vancouver Center
Thu 03:47:06 AM 54.6500 -130.9833 325° Northwest 370 426 38,000  Level Vancouver Center
Thu 03:47:31 AM 54.6833 -130.9833 360° North 380 437 38,000  Level Anchorage Center
Thu 03:48:31 AM 54.7667 -131.0833 325° Northwest 370 426 38,000  Level Anchorage Center
Thu 03:49:06 AM 54.8333 -131.1833 319° Northwest 370 426 38,000  Level Vancouver Center
Thu 03:50:06 AM 54.9000 -131.2833 319° Northwest 370 426 38,000  Level Vancouver Center
Thu 03:50:32 AM 54.9333 -131.2833 360° North 370 426 38,000  Level Anchorage Center
Thu 03:51:32 AM 55.0167 -131.4000 321° Northwest 370 426 38,000  Level Anchorage Center
Thu 03:52:32 AM 55.1000 -131.5000 326° Northwest 380 437 38,000  Level Anchorage Center
Thu 03:53:32 AM 55.1833 -131.6167 321° Northwest 380 437 38,000  Level Anchorage Center
Thu 03:54:32 AM 55.2667 -131.7167 326° Northwest 380 437 38,000  Level Anchorage Center
Thu 03:55:32 AM 55.3667 -131.8333 326° Northwest 370 426 38,000  Level Anchorage Center
Thu 03:56:32 AM 55.4333 -131.9333 320° Northwest 370 426 38,000  Level Anchorage Center
Thu 03:57:32 AM 55.5167 -132.0333 326° Northwest 360 414 38,000  Level Anchorage Center
Thu 03:58:32 AM 55.6000 -132.1500 322° Northwest 370 426 38,000  Level Anchorage Center
Thu 03:59:32 AM 55.7000 -132.2500 331° Northwest 380 437 38,000  Level Anchorage Center
Thu 04:00:32 AM 55.7833 -132.3500 326° Northwest 370 426 38,000  Level Anchorage Center
Thu 04:01:32 AM 55.8667 -132.4500 326° Northwest 380 437 38,000  Level Anchorage Center
Thu 04:02:32 AM 55.9667 -132.5500 331° Northwest 380 437 38,000  Level Anchorage Center
Thu 04:03:33 AM 56.0500 -132.6500 326° Northwest 370 426 38,000  Level Anchorage Center
Thu 04:04:33 AM 56.1333 -132.7500 326° Northwest 370 426 38,000  Level Anchorage Center
Thu 04:05:33 AM 56.2167 -132.8500 326° Northwest 370 426 38,000  Level Anchorage Center
Thu 04:06:33 AM 56.3167 -132.9500 331° Northwest 370 426 38,000  Level Anchorage Center
Thu 04:07:33 AM 56.4000 -133.0500 326° Northwest 380 437 38,000  Level Anchorage Center
Thu 04:08:33 AM 56.4833 -133.1500 326° Northwest 380 437 38,000  Level Anchorage Center
Thu 04:09:33 AM 56.5667 -133.2500 327° Northwest 360 414 38,000  Level Anchorage Center
Thu 04:10:34 AM 56.6500 -133.3500 327° Northwest 370 426 38,000  Level Anchorage Center
Thu 04:11:34 AM 56.7333 -133.4667 322° Northwest 360 414 38,000  Level Anchorage Center
Thu 04:12:34 AM 56.8333 -133.5667 331° Northwest 360 414 38,000  Level Anchorage Center
Thu 04:13:34 AM 56.9167 -133.6667 327° Northwest 370 426 38,000  Level Anchorage Center
Thu 04:14:34 AM 57.0000 -133.7667 327° Northwest 370 426 38,000  Level Anchorage Center
Thu 04:15:34 AM 57.0833 -133.8667 327° Northwest 360 414 38,000  Level Anchorage Center
Thu 04:16:34 AM 57.1667 -133.9667 327° Northwest 360 414 38,000  Level Anchorage Center
Thu 04:17:34 AM 57.2500 -134.0833 323° Northwest 370 426 38,000  Level Anchorage Center
Thu 04:18:34 AM 57.3333 -134.1833 327° Northwest 370 426 38,000  Level Anchorage Center
Thu 04:19:34 AM 57.4167 -134.3000 323° Northwest 370 426 38,000  Level Anchorage Center
Thu 04:20:34 AM 57.5167 -134.4000 332° Northwest 370 426 38,000  Level Anchorage Center
Thu 04:21:34 AM 57.6000 -134.5000 327° Northwest 380 437 38,000  Level Anchorage Center
Thu 04:22:35 AM 57.6833 -134.6167 323° Northwest 370 426 38,000  Level Anchorage Center
Thu 04:23:35 AM 57.7667 -134.7333 323° Northwest 380 437 38,000  Level Anchorage Center
Thu 04:24:35 AM 57.8500 -134.8333 327° Northwest 380 437 38,000  Level Anchorage Center
Thu 04:25:35 AM 57.9333 -134.9500 323° Northwest 380 437 38,000  Level Anchorage Center
Thu 04:26:35 AM 58.0333 -135.0667 328° Northwest 390 449 38,000  Level Anchorage Center
Thu 04:27:35 AM 58.1167 -135.1667 328° Northwest 380 437 38,000  Level Anchorage Center
Thu 04:28:35 AM 58.2000 -135.2833 324° Northwest 390 449 38,000  Level Anchorage Center
Thu 04:29:35 AM 58.3000 -135.3833 332° Northwest 390 449 38,000  Level Anchorage Center
Thu 04:30:36 AM 58.3833 -135.4833 328° Northwest 380 437 38,000  Level Anchorage Center
Thu 04:31:36 AM 58.4833 -135.5833 332° Northwest 390 449 38,000  Level Anchorage Center
Thu 04:32:36 AM 58.5833 -135.6833 332° Northwest 380 437 38,000  Level Anchorage Center
Thu 04:33:36 AM 58.6667 -135.7833 328° Northwest 380 437 38,000  Level Anchorage Center
Thu 04:34:36 AM 58.7667 -135.9000 329° Northwest 390 449 38,000  Level Anchorage Center
Thu 04:35:36 AM 58.8500 -135.9833 333° Northwest 390 449 38,000  Level Anchorage Center
Thu 04:36:36 AM 58.9500 -136.1000 329° Northwest 400 460 38,000 400 Level Anchorage Center
Thu 04:37:36 AM 59.0500 -136.2000 333° Northwest 390 449 38,800 850 Climbing Anchorage Center
Thu 04:38:36 AM 59.1333 -136.3000 328° Northwest 400 460 39,700 595 Climbing Anchorage Center
Thu 04:39:37 AM 59.2333 -136.4167 329° Northwest 390 449 40,000 149 Climbing Anchorage Center
Thu 04:40:37 AM 59.3333 -136.5167 333° Northwest 400 460 40,000  Level Anchorage Center
Thu 04:41:37 AM 59.4333 -136.6333 329° Northwest 410 472 40,000  Level Anchorage Center
Thu 04:42:37 AM 59.5167 -136.7500 325° Northwest 410 472 40,000  Level Anchorage Center
Thu 04:43:37 AM 59.6167 -136.8500 333° Northwest 400 460 40,000  Level Anchorage Center
Thu 04:44:37 AM 59.7167 -136.9667 330° Northwest 400 460 40,000  Level Anchorage Center
Thu 04:45:37 AM 59.8167 -137.0833 330° Northwest 400 460 40,000  Level Anchorage Center
Thu 04:46:37 AM 59.9000 -137.2000 325° Northwest 400 460 40,000  Level Anchorage Center
Thu 04:47:37 AM 60.0000 -137.3167 330° Northwest 400 460 40,000  Level Anchorage Center
Thu 04:48:37 AM 60.1000 -137.4333 330° Northwest 400 460 40,000  Level Anchorage Center
Thu 04:49:37 AM 60.2000 -137.5333 334° Northwest 400 460 40,000  Level Anchorage Center
Thu 04:50:37 AM 60.2833 -137.6500 325° Northwest 400 460 40,000  Level Anchorage Center
Thu 04:51:38 AM 60.3833 -137.7667 330° Northwest 400 460 40,000  Level Anchorage Center
Thu 04:52:38 AM 60.4833 -137.8833 330° Northwest 400 460 40,000  Level Anchorage Center
Thu 04:53:38 AM 60.5667 -138.0167 322° Northwest 400 460 40,000  Level Anchorage Center
Thu 04:54:38 AM 60.6667 -138.1333 330° Northwest 400 460 40,000  Level Anchorage Center
Thu 04:55:38 AM 60.7667 -138.2500 330° Northwest 400 460 40,000  Level Anchorage Center
Thu 04:56:38 AM 60.8667 -138.3667 330° Northwest 400 460 40,000  Level Anchorage Center
Thu 04:57:38 AM 60.9500 -138.4833 326° Northwest 410 472 40,000  Level Anchorage Center
Thu 04:58:38 AM 61.0500 -138.6167 327° Northwest 410 472 40,000  Level Anchorage Center
Thu 04:59:39 AM 61.1500 -138.7333 331° Northwest 410 472 40,000  Level Anchorage Center
Thu 05:00:39 AM 61.2500 -138.8667 327° Northwest 400 460 40,000  Level Anchorage Center
Thu 05:01:39 AM 61.3333 -139.0000 323° Northwest 410 472 40,000  Level Anchorage Center
Thu 05:02:39 AM 61.4167 -139.1333 323° Northwest 390 449 40,000  Level Anchorage Center
Thu 05:03:39 AM 61.5167 -139.2833 324° Northwest 410 472 40,000  Level Anchorage Center
Thu 05:04:39 AM 61.6000 -139.4333 319° Northwest 400 460 40,000  Level Anchorage Center
Thu 05:07:24 AM 61.8333 -139.8500 320° Northwest 430 495 40,000  Level Anchorage Center
Thu 05:09:00 AM 61.9577 -140.0707 320° Northwest  Level FlightAware Approximate
Thu 05:16:00 AM 62.4974 -141.0580 319° Northwest  Level FlightAware Approximate
Thu 05:16:00 AM 62.5833 -141.2333 318° Northwest 470 541 40,000  Level Anchorage Center
Thu 05:17:00 AM 62.5736 -141.2027 319° Northwest  Level FlightAware Approximate
Thu 05:17:00 AM 62.6667 -141.3833 320° Northwest 410 472 40,000  Level Anchorage Center
Thu 05:18:00 AM 62.6496 -141.3482 319° Northwest  Level FlightAware Approximate
Thu 05:18:01 AM 62.7500 -141.5500 318° Northwest 400 460 40,000  Level Anchorage Center
Thu 05:19:00 AM 62.7256 -141.4944 319° Northwest  Level FlightAware Approximate
Thu 05:19:01 AM 62.8333 -141.6833 324° Northwest 410 472 40,000  Level Anchorage Center
Thu 05:20:00 AM 62.8013 -141.6414 318° Northwest  Level FlightAware Approximate
Thu 05:21:00 AM 62.8769 -141.7891 318° Northwest  Level FlightAware Approximate
Thu 05:21:00 AM 62.9701 -142.0043 308° West  Level FlightAware Approximate
Thu 05:26:01 AM 63.3500 -143.1000 307° West 440 506 40,000  Level Anchorage Center
Thu 05:27:01 AM 63.4167 -143.3000 307° West 410 472 40,000  Level Anchorage Center
Thu 05:28:00 AM 63.3938 -143.2616 306° West  Level FlightAware Approximate
Thu 05:28:01 AM 63.4833 -143.5167 305° West 420 483 40,000  Level Anchorage Center
Thu 05:29:00 AM 63.4526 -143.4454 306° West  Level FlightAware Approximate
Thu 05:29:01 AM 63.5500 -143.7167 307° West 410 472 40,000  Level Anchorage Center
Thu 05:30:00 AM 63.5112 -143.6301 306° West  Level FlightAware Approximate
Thu 05:30:01 AM 63.6167 -143.9167 307° West 420 483 40,000  Level Anchorage Center
Thu 05:31:00 AM 63.5711 -143.8131 307° West  Level FlightAware Approximate
Thu 05:31:01 AM 63.7000 -144.1167 313° West 410 472 40,000  Level Anchorage Center
Thu 05:32:01 AM 63.7667 -144.3000 309° West 420 483 40,000  Level Anchorage Center
Thu 05:33:02 AM 63.8500 -144.5167 311° West 420 483 40,000  Level Anchorage Center
Thu 05:34:02 AM 63.9167 -144.7167 307° West 420 483 40,000 -650 Level Anchorage Center
Thu 05:35:02 AM 64.0000 -144.9167 314° West 400 460 38,700 -2,150 Descending Anchorage Center
Thu 05:36:02 AM 64.0667 -145.1333 305° West 410 472 35,700 -3,150 Descending Anchorage Center
Thu 05:37:02 AM 64.1333 -145.3333 307° West 420 483 32,400 -3,600 Descending Anchorage Center
Thu 05:38:02 AM 64.2000 -145.5667 303° West 420 483 28,500 -3,350 Descending Anchorage Center
Thu 05:39:02 AM 64.2500 -145.8167 295° West 430 495 25,700 -3,000 Descending Anchorage Center
Thu 05:40:02 AM 64.3167 -146.0500 303° West 410 472 22,500 -3,200 Descending Anchorage Center
Thu 05:42:00 AM 64.3677 -146.4940 285° West  Level FlightAware Approximate
Thu 05:49:00 AM 64.7982 -147.8035 308° West  Level Estimated
Thu 05:50:00 AM 64.7859 -147.8782 40° Northeast  Level FlightAware Approximate
Thu 05:51:00 AM 64.8000 -147.8500 40° Northeast  Level FlightAware Approximate
Thu 05:52:00 AM 64.8151 -147.8564 40° Northeast  Level Estimated
Thu 05:53:00 AM 64.8151 -147.8564 40° Northeast  Level Estimated
Thu 05:54:00 AM 64.8151 -147.8564 40° Northeast  Level Estimated
Thu 05:55:00 AM 64.8151 -147.8564 40° Northeast  Level Estimated
Thu 05:56:00 AM 64.8151 -147.8564 40° Northeast  Level Estimated
Thu 05:57:00 AM 64.8151 -147.8564 40° Northeast  Level Estimated
Thu 05:58:00 AM 64.8151 -147.8564 40° Northeast  Level Estimated
Thu 05:59:00 AM 64.8151 -147.8564 40° Northeast  Level Estimated
Thu 06:00:00 AM 64.8151 -147.8564 40° Northeast  Level Estimated
Thu 06:01:00 AM 64.8151 -147.8564 40° Northeast  Level Estimated
Thu 06:02:00 AM 64.8151 -147.8564 40° Northeast  Level Estimated
Thu 06:03:00 AM 64.8151 -147.8564 40° Northeast  Level Estimated
Thu 06:04:00 AM 64.8151 -147.8564 40° Northeast  Level Estimated
Thu 06:05:00 AM 64.8151 -147.8564 40° Northeast  Level Estimated
Thu 06:06:00 AM 64.8151 -147.8564 40° Northeast  Level Estimated

Login

Don't have an account? Register now (free) for customized features, flight alerts, and more!